Time;durP1;ratioP1;P1;durP2;ratioP2;P2;SDS_P1;SDS_P2;PMS_P1;PMS_P2;Temp;Humidity;BMP_temperature;BMP_pressure;BME280_temperature;BME280_humidity;BME280_pressure;Samples;Min_cycle;Max_cycle;Signal;HPM_P1;HPM_P2
2023/07/22 00:02:25;;;;;;;12.75;4.13;;;13.30;99.90;;;;;;5078240;28;20411;-59
2023/07/22 00:04:52;;;;;;;10.13;4.07;;;13.30;99.90;;;;;;5079314;28;20480;-58
2023/07/22 00:07:18;;;;;;;10.38;3.40;;;13.30;99.90;;;;;;5077365;28;20156;-57
2023/07/22 00:09:43;;;;;;;9.20;3.55;;;13.20;99.90;;;;;;5078916;28;20561;-58
2023/07/22 00:12:10;;;;;;;9.70;3.60;;;13.10;99.90;;;;;;5077887;28;20032;-57
2023/07/22 00:14:40;;;;;;;9.13;3.78;;;13.00;99.90;;;;;;5078613;28;20411;-58
2023/07/22 00:17:05;;;;;;;7.50;3.30;;;13.00;99.90;;;;;;5078803;28;20044;-58
2023/07/22 00:19:31;;;;;;;6.05;2.42;;;12.90;99.90;;;;;;5077647;28;20349;-57
2023/07/22 00:21:57;;;;;;;8.57;2.78;;;12.90;99.90;;;;;;5078996;28;20044;-58
2023/07/22 00:24:23;;;;;;;6.88;2.50;;;12.80;99.90;;;;;;5076320;28;20499;-58
2023/07/22 00:26:49;;;;;;;7.47;2.58;;;12.80;99.90;;;;;;5078656;28;20198;-58
2023/07/22 00:29:16;;;;;;;8.10;2.78;;;12.90;99.90;;;;;;5077081;28;20048;-57
2023/07/22 00:31:41;;;;;;;7.20;2.50;;;12.90;99.90;;;;;;5078557;28;20044;-58
2023/07/22 00:34:08;;;;;;;7.05;2.33;;;12.90;99.90;;;;;;5077564;28;20502;-57
2023/07/22 00:36:33;;;;;;;12.70;6.63;;;12.90;99.90;;;;;;5077548;28;20059;-58
2023/07/22 00:39:00;;;;;;;13.82;7.82;;;13.00;99.90;;;;;;5078030;28;20040;-58
2023/07/22 00:41:25;;;;;;;13.85;9.20;;;13.10;99.90;;;;;;5076728;28;20033;-58
2023/07/22 00:43:51;;;;;;;11.52;6.68;;;13.10;99.90;;;;;;5078470;28;20127;-58
2023/07/22 00:46:17;;;;;;;10.43;5.43;;;13.10;99.90;;;;;;5076896;28;20037;-57
2023/07/22 00:48:42;;;;;;;8.25;3.80;;;13.10;99.90;;;;;;5077894;28;20429;-57
2023/07/22 00:51:08;;;;;;;9.18;3.20;;;13.10;99.90;;;;;;5077912;28;20100;-57
2023/07/22 00:53:34;;;;;;;9.07;3.17;;;13.20;99.90;;;;;;5077379;28;20632;-58
2023/07/22 00:56:00;;;;;;;8.73;3.25;;;13.10;99.90;;;;;;5069877;28;20577;-58
2023/07/22 00:58:25;;;;;;;10.52;3.05;;;13.00;99.90;;;;;;5071544;28;20053;-58
2023/07/22 01:00:52;;;;;;;6.75;2.95;;;13.00;99.90;;;;;;5071190;28;20048;-58
2023/07/22 01:03:18;;;;;;;8.55;3.10;;;13.00;99.90;;;;;;5076454;28;20051;-58
2023/07/22 01:05:47;;;;;;;11.85;3.33;;;13.10;99.90;;;;;;5077464;28;20048;-59
2023/07/22 01:08:13;;;;;;;8.00;3.22;;;13.10;99.90;;;;;;5077352;28;20040;-58
2023/07/22 01:10:39;;;;;;;7.30;3.13;;;13.20;99.90;;;;;;5077104;28;20493;-59
2023/07/22 01:13:05;;;;;;;12.13;4.18;;;13.10;99.90;;;;;;5078137;28;20069;-58
2023/07/22 01:15:32;;;;;;;8.85;3.30;;;13.00;99.90;;;;;;5076783;28;20100;-59
2023/07/22 01:18:01;;;;;;;10.88;4.05;;;13.00;99.90;;;;;;5077932;28;20041;-58
2023/07/22 01:20:29;;;;;;;8.18;3.83;;;13.00;99.90;;;;;;5076148;28;20063;-58
2023/07/22 01:22:55;;;;;;;8.90;3.47;;;13.10;99.90;;;;;;5077803;28;20045;-59
2023/07/22 01:25:21;;;;;;;12.38;4.30;;;13.10;99.90;;;;;;5076904;28;20048;-58
2023/07/22 01:27:49;;;;;;;9.85;4.07;;;13.10;99.90;;;;;;5077189;28;20052;-58
2023/07/22 01:30:14;;;;;;;9.52;3.75;;;13.00;99.90;;;;;;5077441;28;20051;-58
2023/07/22 01:32:40;;;;;;;7.97;4.00;;;13.00;99.90;;;;;;5076262;28;20052;-58
2023/07/22 01:35:09;;;;;;;11.27;4.10;;;12.90;99.90;;;;;;5077468;28;20048;-58
2023/07/22 01:37:35;;;;;;;9.25;3.30;;;12.90;99.90;;;;;;5075590;28;20092;-58
2023/07/22 01:40:11;;;;;;;8.88;4.03;;;12.90;99.90;;;;;;5077134;28;20071;-57
2023/07/22 01:42:41;;;;;;;8.20;3.85;;;12.90;99.90;;;;;;5076962;28;20079;-57
2023/07/22 01:45:07;;;;;;;11.00;4.18;;;12.90;99.90;;;;;;5076703;28;20538;-58
2023/07/22 01:47:36;;;;;;;10.65;3.60;;;12.90;99.90;;;;;;5077442;28;20052;-58
2023/07/22 01:50:03;;;;;;;13.07;4.43;;;12.90;99.90;;;;;;5075772;28;20044;-58
2023/07/22 01:52:29;;;;;;;11.52;4.35;;;12.90;99.90;;;;;;5077732;28;20563;-58
2023/07/22 01:54:55;;;;;;;9.07;3.97;;;12.90;99.90;;;;;;5076543;28;20045;-58
2023/07/22 01:57:21;;;;;;;9.00;4.15;;;12.80;99.90;;;;;;5077315;28;20045;-58
2023/07/22 01:59:46;;;;;;;9.93;4.22;;;12.80;99.90;;;;;;5076998;28;20044;-58
2023/07/22 02:02:12;;;;;;;8.85;3.83;;;12.70;99.90;;;;;;5076677;28;20449;-58
2023/07/22 02:04:38;;;;;;;9.68;3.90;;;12.70;99.90;;;;;;5077105;28;20435;-59
2023/07/22 02:07:03;;;;;;;10.30;4.28;;;12.70;99.90;;;;;;5075851;28;20075;-59
2023/07/22 02:09:29;;;;;;;8.77;3.90;;;12.70;99.90;;;;;;5077459;28;20040;-58
2023/07/22 02:11:55;;;;;;;8.15;3.70;;;12.70;99.90;;;;;;5076024;28;20048;-58
2023/07/22 02:14:20;;;;;;;9.60;4.35;;;12.60;99.90;;;;;;5077298;28;20036;-58
2023/07/22 02:16:46;;;;;;;8.45;3.67;;;12.70;99.90;;;;;;5076705;28;20037;-58
2023/07/22 02:19:11;;;;;;;9.95;4.43;;;12.60;99.90;;;;;;5076431;28;20041;-58
2023/07/22 02:21:37;;;;;;;9.43;4.40;;;12.50;99.90;;;;;;5076556;28;20037;-58
2023/07/22 02:24:03;;;;;;;11.57;4.75;;;12.50;99.90;;;;;;5075911;28;20036;-59
2023/07/22 02:26:29;;;;;;;10.80;4.03;;;12.60;99.90;;;;;;5077358;28;20493;-59
2023/07/22 02:28:54;;;;;;;10.25;4.72;;;12.50;99.90;;;;;;5076168;28;20224;-59
2023/07/22 02:31:22;;;;;;;10.48;4.32;;;12.50;99.90;;;;;;5077410;28;20132;-59
2023/07/22 02:33:48;;;;;;;10.45;4.20;;;12.50;99.90;;;;;;5076457;28;20058;-59
2023/07/22 02:36:14;;;;;;;9.73;5.07;;;12.40;99.90;;;;;;5077048;28;20049;-58
2023/07/22 02:38:39;;;;;;;8.98;4.30;;;12.30;99.90;;;;;;5077140;28;20559;-57
2023/07/22 02:41:07;;;;;;;10.57;4.60;;;12.40;99.90;;;;;;5076423;28;20044;-58
2023/07/22 02:43:34;;;;;;;9.50;4.05;;;12.40;99.90;;;;;;5077252;28;20048;-58
2023/07/22 02:46:02;;;;;;;9.57;4.10;;;12.30;99.90;;;;;;5075515;28;20051;-58
2023/07/22 02:48:28;;;;;;;10.23;4.53;;;12.40;99.90;;;;;;5079510;28;20054;-58
2023/07/22 02:50:55;;;;;;;9.88;4.00;;;12.50;99.90;;;;;;5080179;28;20072;-57
2023/07/22 02:53:20;;;;;;;8.65;4.13;;;12.40;99.90;;;;;;5080669;28;20051;-58
2023/07/22 02:55:46;;;;;;;8.90;4.20;;;12.40;99.90;;;;;;5080344;28;20092;-56
2023/07/22 02:58:12;;;;;;;11.48;4.15;;;12.40;99.90;;;;;;5079891;28;20033;-58
2023/07/22 03:00:38;;;;;;;9.48;3.95;;;12.40;99.90;;;;;;5080395;28;20090;-58
2023/07/22 03:03:04;;;;;;;10.30;4.78;;;12.40;99.90;;;;;;5079066;28;20045;-58
2023/07/22 03:05:32;;;;;;;10.45;4.25;;;12.40;99.90;;;;;;5080354;28;20128;-58
2023/07/22 03:07:58;;;;;;;8.45;3.63;;;12.40;99.90;;;;;;5079584;28;20220;-58
2023/07/22 03:10:29;;;;;;;9.98;4.15;;;12.30;99.90;;;;;;5080272;28;20040;-58
2023/07/22 03:12:55;;;;;;;9.15;4.57;;;12.40;99.90;;;;;;5080130;28;20044;-58
2023/07/22 03:15:22;;;;;;;10.50;4.85;;;12.40;99.90;;;;;;5079662;28;20602;-58
2023/07/22 03:17:48;;;;;;;11.45;5.10;;;12.20;99.90;;;;;;5080551;28;20048;-58
2023/07/22 03:20:16;;;;;;;10.07;4.80;;;12.30;99.90;;;;;;5078897;28;20067;-59
2023/07/22 03:22:41;;;;;;;11.10;5.32;;;12.30;99.90;;;;;;5080383;28;20048;-59
2023/07/22 03:25:10;;;;;;;11.13;5.25;;;12.30;99.90;;;;;;5079883;28;20129;-58
2023/07/22 03:27:36;;;;;;;9.35;5.05;;;12.20;99.90;;;;;;5078728;28;20196;-58
2023/07/22 03:30:07;;;;;;;10.35;4.80;;;12.30;99.90;;;;;;5080319;28;20040;-58
2023/07/22 03:32:36;;;;;;;11.85;4.55;;;12.20;99.90;;;;;;5077840;28;20052;-58
2023/07/22 03:35:02;;;;;;;10.63;5.30;;;12.20;99.90;;;;;;5080144;28;20068;-58
2023/07/22 03:37:29;;;;;;;11.05;5.22;;;12.10;99.90;;;;;;5078654;28;20052;-58
2023/07/22 03:39:55;;;;;;;11.13;5.18;;;12.10;99.90;;;;;;5080056;28;20037;-58
2023/07/22 03:42:20;;;;;;;10.05;5.63;;;12.10;99.90;;;;;;5079583;28;20055;-57
2023/07/22 03:44:46;;;;;;;9.93;5.20;;;12.20;99.90;;;;;;5079546;28;20051;-59
2023/07/22 03:47:12;;;;;;;10.63;4.93;;;12.10;99.90;;;;;;5079503;28;20555;-58
2023/07/22 03:49:38;;;;;;;10.80;4.85;;;12.20;99.90;;;;;;5077559;28;20052;-58
2023/07/22 03:52:04;;;;;;;11.93;5.15;;;12.20;99.90;;;;;;5079903;28;20133;-58
2023/07/22 03:54:30;;;;;;;8.43;4.55;;;12.20;99.90;;;;;;5078248;28;20041;-58
2023/07/22 03:56:55;;;;;;;11.15;5.15;;;12.20;99.90;;;;;;5079302;28;20039;-58
2023/07/22 03:59:21;;;;;;;9.35;4.40;;;12.30;99.90;;;;;;5077341;28;20051;-57
2023/07/22 04:01:47;;;;;;;9.05;4.10;;;12.30;99.90;;;;;;5079267;28;20040;-59
2023/07/22 04:04:13;;;;;;;9.35;4.35;;;12.30;99.90;;;;;;5079411;28;20064;-58
2023/07/22 04:06:39;;;;;;;8.90;3.83;;;12.50;99.90;;;;;;5078449;28;20053;-58
2023/07/22 04:09:04;;;;;;;10.40;4.38;;;12.50;99.90;;;;;;5079527;28;20036;-58
2023/07/22 04:11:30;;;;;;;9.48;3.80;;;12.50;99.90;;;;;;5078297;28;20036;-59
2023/07/22 04:13:56;;;;;;;9.60;4.15;;;12.60;99.90;;;;;;5077649;28;20064;-59
2023/07/22 04:16:21;;;;;;;9.93;4.18;;;12.60;99.90;;;;;;5078126;28;20052;-58
2023/07/22 04:18:47;;;;;;;10.02;3.78;;;12.60;99.90;;;;;;5079182;28;20044;-59
2023/07/22 04:21:13;;;;;;;9.93;3.55;;;12.60;99.90;;;;;;5078248;28;20068;-58
2023/07/22 04:23:38;;;;;;;9.57;3.70;;;12.70;99.90;;;;;;5078250;28;20599;-59
2023/07/22 04:26:07;;;;;;;7.43;3.47;;;12.70;99.90;;;;;;5079171;28;20500;-58
2023/07/22 04:28:34;;;;;;;8.82;3.75;;;12.80;99.90;;;;;;5077853;28;20063;-58
2023/07/22 04:31:00;;;;;;;9.43;3.75;;;12.90;99.90;;;;;;5077562;28;20666;-57
2023/07/22 04:33:27;;;;;;;8.85;4.38;;;12.90;99.90;;;;;;5077139;28;20096;-58
2023/07/22 04:35:58;;;;;;;8.30;3.85;;;12.80;99.90;;;;;;5077612;28;20045;-58
2023/07/22 04:38:25;;;;;;;12.57;3.58;;;12.90;99.90;;;;;;5078252;28;20036;-58
2023/07/22 04:40:50;;;;;;;9.55;3.55;;;12.90;99.90;;;;;;5077563;28;20514;-58
2023/07/22 04:43:16;;;;;;;8.32;3.58;;;13.00;99.90;;;;;;5078491;28;20104;-58
2023/07/22 04:45:44;;;;;;;8.98;3.80;;;13.10;99.90;;;;;;5075650;28;20056;-58
2023/07/22 04:48:11;;;;;;;8.27;3.92;;;13.10;99.90;;;;;;5077208;28;20051;-58
2023/07/22 04:50:40;;;;;;;12.55;4.10;;;13.10;99.90;;;;;;5077896;28;20040;-58
2023/07/22 04:53:06;;;;;;;10.30;4.13;;;13.00;99.90;;;;;;5078179;28;20059;-58
2023/07/22 04:55:32;;;;;;;10.30;5.10;;;13.00;99.90;;;;;;5070279;28;20052;-59
2023/07/22 04:57:58;;;;;;;8.75;4.60;;;13.10;99.90;;;;;;5073067;28;20098;-58
2023/07/22 05:00:24;;;;;;;11.60;5.15;;;13.10;99.90;;;;;;5058687;28;20045;-58
2023/07/22 05:02:52;;;;;;;12.65;4.40;;;13.00;99.90;;;;;;5057480;28;20041;-58
2023/07/22 05:05:18;;;;;;;10.02;4.40;;;13.10;99.90;;;;;;5056521;28;20041;-58
2023/07/22 05:07:45;;;;;;;14.02;4.82;;;13.10;99.90;;;;;;5053580;28;20129;-58
2023/07/22 05:10:12;;;;;;;13.57;5.07;;;13.20;99.90;;;;;;5054089;28;20115;-58
2023/07/22 05:12:41;;;;;;;10.15;5.00;;;13.20;99.90;;;;;;5054171;28;20037;-58
2023/07/22 05:15:07;;;;;;;11.40;5.68;;;13.20;99.90;;;;;;5054022;28;20075;-58
2023/07/22 05:17:33;;;;;;;10.27;4.65;;;13.30;99.90;;;;;;5054198;28;20047;-58
2023/07/22 05:19:59;;;;;;;10.30;5.13;;;13.40;99.90;;;;;;5054227;28;20040;-58
2023/07/22 05:22:25;;;;;;;9.60;5.03;;;13.50;99.90;;;;;;5055632;28;20077;-58
2023/07/22 05:24:50;;;;;;;10.25;5.07;;;13.50;99.90;;;;;;5054031;28;20055;-58
2023/07/22 05:27:17;;;;;;;11.55;5.35;;;13.60;99.90;;;;;;5054830;28;20045;-58
2023/07/22 05:29:43;;;;;;;12.93;5.07;;;13.70;99.90;;;;;;5054401;28;20048;-58
2023/07/22 05:32:09;;;;;;;12.27;5.78;;;13.80;99.90;;;;;;5054310;28;20083;-58
2023/07/22 05:34:35;;;;;;;12.57;5.80;;;13.90;99.90;;;;;;5054826;28;20057;-58
2023/07/22 05:37:01;;;;;;;11.20;4.80;;;14.00;99.90;;;;;;5052863;28;20145;-58
2023/07/22 05:39:26;;;;;;;11.80;5.28;;;14.00;99.90;;;;;;5055410;28;20049;-58
2023/07/22 05:41:52;;;;;;;10.75;5.45;;;14.10;99.90;;;;;;5072154;28;20037;-59
2023/07/22 05:44:18;;;;;;;11.70;5.25;;;14.20;99.90;;;;;;5073340;28;20052;-58
2023/07/22 05:46:44;;;;;;;12.77;6.07;;;14.20;99.90;;;;;;5073184;28;20044;-58
2023/07/22 05:49:10;;;;;;;11.88;5.35;;;14.30;99.90;;;;;;5072357;28;20036;-58
2023/07/22 05:51:37;;;;;;;11.55;5.93;;;14.40;99.90;;;;;;5073841;28;20041;-57
2023/07/22 05:54:02;;;;;;;10.55;5.32;;;14.60;99.90;;;;;;5071760;28;20138;-58
2023/07/22 05:56:28;;;;;;;12.77;5.95;;;14.70;99.90;;;;;;5072154;28;20044;-58
2023/07/22 05:58:54;;;;;;;13.63;6.40;;;14.80;99.90;;;;;;5072272;28;20064;-58
2023/07/22 06:01:20;;;;;;;11.13;5.93;;;14.70;99.90;;;;;;5072690;28;20064;-59
2023/07/22 06:03:45;;;;;;;13.75;5.47;;;14.70;99.90;;;;;;5073382;28;20104;-58
2023/07/22 06:06:11;;;;;;;11.88;6.13;;;14.70;99.90;;;;;;5072833;28;20048;-58
2023/07/22 06:08:37;;;;;;;10.27;5.50;;;14.80;99.90;;;;;;5073510;28;20052;-58
2023/07/22 06:11:02;;;;;;;14.18;6.80;;;14.90;99.90;;;;;;5072872;28;20048;-57
2023/07/22 06:13:28;;;;;;;14.57;6.82;;;14.90;99.90;;;;;;5074329;28;20052;-57
2023/07/22 06:15:54;;;;;;;13.57;6.93;;;14.90;99.90;;;;;;5072619;28;20032;-57
2023/07/22 06:18:19;;;;;;;13.90;6.80;;;14.90;99.90;;;;;;5073478;28;20100;-57
2023/07/22 06:20:45;;;;;;;12.18;7.15;;;14.90;99.90;;;;;;5073321;28;20067;-56
2023/07/22 06:23:11;;;;;;;12.48;6.70;;;14.80;99.90;;;;;;5075530;28;20078;-57
2023/07/22 06:25:37;;;;;;;13.52;6.97;;;14.80;99.90;;;;;;5077271;28;20543;-57
2023/07/22 06:28:02;;;;;;;13.02;6.45;;;14.90;99.90;;;;;;5076794;28;20051;-57
2023/07/22 06:30:28;;;;;;;11.82;6.68;;;14.90;99.90;;;;;;5076920;28;20066;-57
2023/07/22 06:32:54;;;;;;;12.77;6.85;;;14.90;99.90;;;;;;5076112;28;20096;-56
2023/07/22 06:35:20;;;;;;;13.48;7.10;;;15.10;99.90;;;;;;5077383;28;20044;-57
2023/07/22 06:37:45;;;;;;;12.95;6.85;;;15.10;99.90;;;;;;5076191;28;20055;-56
2023/07/22 06:40:11;;;;;;;14.38;7.75;;;15.30;99.90;;;;;;5075761;28;20085;-57
2023/07/22 06:42:37;;;;;;;14.13;7.93;;;15.40;99.90;;;;;;5076786;28;20051;-58
2023/07/22 06:45:04;;;;;;;14.25;7.97;;;15.40;99.90;;;;;;5076319;28;20388;-57
2023/07/22 06:47:30;;;;;;;15.70;7.75;;;15.40;99.90;;;;;;5077286;28;20127;-57
2023/07/22 06:49:57;;;;;;;13.60;7.80;;;15.50;99.90;;;;;;5076292;28;20083;-57
2023/07/22 06:52:22;;;;;;;14.40;8.30;;;15.50;99.90;;;;;;5076973;28;20044;-58
2023/07/22 06:54:48;;;;;;;14.20;7.25;;;15.70;99.90;;;;;;5075904;28;20045;-56
2023/07/22 06:57:14;;;;;;;15.13;8.25;;;15.80;99.90;;;;;;5076838;28;20064;-57
2023/07/22 06:59:39;;;;;;;17.60;8.50;;;16.00;99.90;;;;;;5075918;28;20048;-57
2023/07/22 07:02:05;;;;;;;16.23;8.43;;;16.00;99.90;;;;;;5074719;28;20054;-57
2023/07/22 07:04:31;;;;;;;15.00;8.07;;;16.00;99.90;;;;;;5076712;28;20040;-57
2023/07/22 07:06:57;;;;;;;15.07;7.93;;;16.20;99.90;;;;;;5074291;28;20049;-56
2023/07/22 07:09:22;;;;;;;15.18;8.48;;;16.20;99.90;;;;;;5076760;28;20063;-56
2023/07/22 07:11:48;;;;;;;15.57;8.20;;;16.20;99.90;;;;;;5075968;28;20063;-56
2023/07/22 07:14:14;;;;;;;16.63;8.77;;;16.30;99.90;;;;;;5076545;28;20102;-58
2023/07/22 07:16:39;;;;;;;16.20;7.78;;;16.30;99.90;;;;;;5076780;28;20052;-58
2023/07/22 07:19:05;;;;;;;16.42;7.80;;;16.30;99.90;;;;;;5075952;28;20041;-58
2023/07/22 07:21:31;;;;;;;15.48;7.80;;;16.30;99.90;;;;;;5076559;28;20104;-58
2023/07/22 07:23:57;;;;;;;14.88;7.32;;;16.20;99.90;;;;;;5075375;28;20057;-59
2023/07/22 07:26:23;;;;;;;14.23;8.00;;;16.30;99.90;;;;;;5077070;28;20125;-62
2023/07/22 07:28:52;;;;;;;15.73;8.60;;;16.10;99.90;;;;;;5075369;28;20052;-56
2023/07/22 07:31:18;;;;;;;14.38;8.05;;;16.10;99.90;;;;;;5076279;28;20041;-56
2023/07/22 07:33:44;;;;;;;16.48;8.52;;;16.20;99.90;;;;;;5075599;28;20059;-55
2023/07/22 07:36:10;;;;;;;15.43;8.18;;;16.20;99.90;;;;;;5075694;28;20040;-55
2023/07/22 07:38:35;;;;;;;16.15;7.80;;;16.20;99.90;;;;;;5075961;28;20080;-54
2023/07/22 07:41:11;;;;;;;18.00;9.20;;;16.30;99.90;;;;;;5075574;28;20855;-56
2023/07/22 07:43:37;;;;;;;13.88;8.25;;;16.50;99.90;;;;;;5076455;28;20055;-55
2023/07/22 07:46:21;;;;;;;15.15;8.77;;;16.50;99.90;;;;;;5075261;28;20037;-55
2023/07/22 07:48:51;;;;;;;14.70;8.65;;;16.60;99.90;;;;;;5075497;28;20052;-56
2023/07/22 07:51:18;;;;;;;14.93;8.27;;;16.70;99.90;;;;;;5075502;28;20180;-55
2023/07/22 07:53:45;;;;;;;17.23;8.93;;;16.70;99.90;;;;;;5074629;28;20040;-56
2023/07/22 07:56:11;;;;;;;17.02;8.20;;;16.70;99.90;;;;;;5077071;28;20044;-56
2023/07/22 07:58:39;;;;;;;15.10;8.38;;;16.80;99.90;;;;;;5074714;28;20259;-55
2023/07/22 08:01:04;;;;;;;13.90;7.70;;;16.90;99.90;;;;;;5077732;28;20037;-56
2023/07/22 08:03:31;;;;;;;14.18;7.68;;;17.00;99.90;;;;;;5076313;28;20074;-55
2023/07/22 08:05:57;;;;;;;14.95;7.93;;;17.10;99.90;;;;;;5079394;28;20041;-55
2023/07/22 08:08:22;;;;;;;13.55;7.15;;;17.20;99.90;;;;;;5079284;28;20746;-55
2023/07/22 08:10:58;;;;;;;13.20;7.78;;;17.20;99.90;;;;;;5078544;28;20045;-56
2023/07/22 08:13:24;;;;;;;12.23;6.95;;;17.30;99.90;;;;;;5078099;28;20058;-55
2023/07/22 08:15:49;;;;;;;12.60;7.00;;;17.60;99.90;;;;;;5078131;28;20507;-56
2023/07/22 08:18:15;;;;;;;13.45;7.43;;;17.70;99.90;;;;;;5079354;28;20048;-57
2023/07/22 08:20:41;;;;;;;15.90;8.05;;;17.90;99.90;;;;;;5078717;28;20064;-56
2023/07/22 08:23:07;;;;;;;14.35;7.63;;;17.90;99.90;;;;;;5078984;28;20055;-56
2023/07/22 08:25:32;;;;;;;11.52;7.30;;;17.80;99.90;;;;;;5079129;28;20048;-56
2023/07/22 08:27:58;;;;;;;12.10;7.78;;;17.40;99.90;;;;;;5077362;28;20541;-56
2023/07/22 08:30:24;;;;;;;13.10;7.82;;;17.50;99.90;;;;;;5079072;28;20400;-56
2023/07/22 08:32:49;;;;;;;12.60;7.43;;;17.60;99.90;;;;;;5077868;28;20043;-56
2023/07/22 08:35:17;;;;;;;11.98;7.07;;;17.40;99.90;;;;;;5079132;28;20060;-57
2023/07/22 08:37:43;;;;;;;13.57;6.95;;;17.40;99.90;;;;;;5078228;28;20048;-56
2023/07/22 08:40:10;;;;;;;13.25;7.47;;;17.50;99.90;;;;;;5078465;28;20132;-56
2023/07/22 08:42:37;;;;;;;11.00;6.97;;;17.50;99.90;;;;;;5078534;28;20060;-55
2023/07/22 08:45:06;;;;;;;12.55;6.53;;;17.60;99.90;;;;;;5076986;28;20045;-56
2023/07/22 08:47:32;;;;;;;13.07;7.45;;;17.70;99.90;;;;;;5078793;28;20036;-57
2023/07/22 08:50:01;;;;;;;12.25;6.85;;;17.60;99.90;;;;;;5077541;28;20504;-57
2023/07/22 08:52:27;;;;;;;13.65;7.22;;;17.80;99.90;;;;;;5078879;28;20055;-57
2023/07/22 08:54:54;;;;;;;12.38;7.35;;;17.70;99.90;;;;;;5077965;28;20044;-54
2023/07/22 08:57:21;;;;;;;14.25;7.43;;;17.80;99.90;;;;;;5078442;28;20037;-56
2023/07/22 08:59:47;;;;;;;12.32;6.90;;;18.00;99.90;;;;;;5078600;28;20519;-57
2023/07/22 09:02:14;;;;;;;13.05;7.35;;;18.00;99.90;;;;;;5077681;28;20446;-56
2023/07/22 09:04:43;;;;;;;11.27;6.18;;;18.00;99.90;;;;;;5078685;28;20132;-57
2023/07/22 09:07:11;;;;;;;11.65;6.40;;;18.10;99.90;;;;;;5076929;28;20043;-56
2023/07/22 09:09:37;;;;;;;11.73;6.97;;;18.00;99.90;;;;;;5079191;28;20040;-56
2023/07/22 09:12:03;;;;;;;11.70;6.65;;;18.00;99.90;;;;;;5077829;28;20381;-56
2023/07/22 09:14:31;;;;;;;12.10;6.65;;;17.80;99.90;;;;;;5078164;28;20040;-56
2023/07/22 09:16:58;;;;;;;11.45;6.57;;;17.70;99.90;;;;;;5076946;28;20052;-55
2023/07/22 09:19:23;;;;;;;11.23;6.68;;;17.60;99.90;;;;;;5077631;28;20119;-57
2023/07/22 09:21:49;;;;;;;13.02;6.53;;;17.50;99.90;;;;;;5078509;28;20048;-55
2023/07/22 09:24:23;;;;;;;10.02;5.97;;;17.40;99.90;;;;;;5076780;28;20400;-57
2023/07/22 09:26:49;;;;;;;10.25;5.80;;;17.20;99.90;;;;;;5078104;28;20072;-57
2023/07/22 09:29:14;;;;;;;11.13;6.10;;;17.20;99.90;;;;;;5077580;28;20040;-56
2023/07/22 09:31:52;;;;;;;10.80;6.13;;;17.20;99.90;;;;;;5077754;28;20044;-55
2023/07/22 09:34:18;;;;;;;10.55;6.10;;;17.10;99.90;;;;;;5078039;28;20056;-55
2023/07/22 09:36:57;;;;;;;11.73;5.20;;;16.90;99.90;;;;;;5074983;28;20528;-57
2023/07/22 09:39:24;;;;;;;9.90;5.28;;;16.60;99.90;;;;;;5077146;28;20525;-58
2023/07/22 09:41:52;;;;;;;9.88;5.13;;;16.40;99.90;;;;;;5076978;28;20094;-58
2023/07/22 09:44:18;;;;;;;12.15;6.07;;;16.30;99.90;;;;;;5078305;28;20052;-58
2023/07/22 09:46:48;;;;;;;13.23;6.57;;;16.30;99.90;;;;;;5077829;28;20037;-60
2023/07/22 09:49:17;;;;;;;10.40;6.10;;;16.20;99.90;;;;;;5077353;28;20599;-59
2023/07/22 09:51:44;;;;;;;10.80;5.88;;;16.20;99.90;;;;;;5077979;28;20096;-59
2023/07/22 09:54:10;;;;;;;10.18;5.78;;;16.20;99.90;;;;;;5076758;28;20089;-58
2023/07/22 09:56:47;;;;;;;10.82;6.30;;;16.30;99.90;;;;;;5077929;28;20048;-59
2023/07/22 09:59:13;;;;;;;11.40;6.03;;;16.40;99.90;;;;;;5081451;28;20056;-58
2023/07/22 10:01:41;;;;;;;13.20;6.53;;;16.50;99.90;;;;;;5081957;28;20066;-59
2023/07/22 10:04:07;;;;;;;12.75;6.60;;;16.60;99.90;;;;;;5081984;28;20040;-58
2023/07/22 10:06:33;;;;;;;12.85;7.43;;;16.60;99.90;;;;;;5080836;28;20045;-58
2023/07/22 10:09:07;;;;;;;12.85;8.00;;;16.50;99.90;;;;;;5081971;28;20037;-59
2023/07/22 10:11:37;;;;;;;13.48;7.65;;;16.50;99.90;;;;;;5080730;28;20050;-58
2023/07/22 10:14:03;;;;;;;11.77;7.25;;;16.30;99.90;;;;;;5081864;28;20051;-58
2023/07/22 10:16:30;;;;;;;10.90;6.50;;;16.40;99.90;;;;;;5081702;28;20037;-58
2023/07/22 10:18:57;;;;;;;12.48;7.53;;;16.50;99.90;;;;;;5081134;28;20072;-58
2023/07/22 10:21:24;;;;;;;12.38;7.10;;;16.50;99.90;;;;;;5081870;28;20084;-58
2023/07/22 10:23:51;;;;;;;12.98;7.70;;;16.50;99.90;;;;;;5080676;28;20051;-58
2023/07/22 10:26:18;;;;;;;15.52;8.48;;;16.50;99.90;;;;;;5082001;28;20075;-58
2023/07/22 10:28:47;;;;;;;15.05;7.68;;;16.60;99.90;;;;;;5080553;28;20029;-57
2023/07/22 10:31:18;;;;;;;13.27;7.80;;;16.60;99.90;;;;;;5081340;28;20127;-58
2023/07/22 10:33:46;;;;;;;13.20;7.85;;;16.60;99.90;;;;;;5079950;28;20094;-58
2023/07/22 10:36:17;;;;;;;14.30;7.60;;;16.60;99.90;;;;;;5080481;28;20124;-59
2023/07/22 10:38:43;;;;;;;14.30;7.28;;;16.60;99.90;;;;;;5081304;28;20112;-59
2023/07/22 10:41:19;;;;;;;12.70;7.32;;;16.60;99.90;;;;;;5080392;28;20052;-57
2023/07/22 10:43:56;;;;;;;12.63;7.55;;;16.70;99.90;;;;;;5081359;28;20142;-61
2023/07/22 10:46:38;;;;;;;12.88;7.15;;;16.60;99.90;;;;;;5080663;28;20048;-59
2023/07/22 10:49:22;;;;;;;15.82;8.30;;;16.60;99.90;;;;;;5080797;28;20064;-59
2023/07/22 10:51:50;;;;;;;12.50;7.00;;;16.40;99.90;;;;;;5074873;28;20121;-59
2023/07/22 10:54:34;;;;;;;12.38;7.70;;;16.60;99.90;;;;;;5070380;28;20123;-59
2023/07/22 10:57:22;;;;;;;12.52;7.40;;;16.40;99.90;;;;;;5073889;28;20197;-60
2023/07/22 10:59:49;;;;;;;13.40;7.65;;;16.30;99.90;;;;;;5068085;28;20112;-59
2023/07/22 11:02:26;;;;;;;13.02;7.63;;;16.30;99.90;;;;;;5060134;28;20048;-59
2023/07/22 11:04:51;;;;;;;10.48;6.15;;;16.30;99.90;;;;;;5059784;28;20079;-58
2023/07/22 11:07:47;;;;;;;10.32;6.18;;;16.30;99.90;;;;;;5059702;28;20045;-59
2023/07/22 11:10:18;;;;;;;10.68;6.40;;;16.20;99.90;;;;;;5060086;28;20053;-60
2023/07/22 11:12:44;;;;;;;10.82;6.65;;;16.20;99.90;;;;;;5059137;28;20045;-60
2023/07/22 11:15:10;;;;;;;10.82;6.43;;;16.20;99.90;;;;;;5059522;28;20048;-60
2023/07/22 11:17:37;;;;;;;11.32;5.90;;;16.10;99.90;;;;;;5061010;28;20055;-60
2023/07/22 11:20:03;;;;;;;9.73;6.15;;;16.10;99.90;;;;;;5059294;28;20041;-60
2023/07/22 11:22:29;;;;;;;11.15;6.10;;;16.00;99.90;;;;;;5060196;28;20041;-60
2023/07/22 11:24:57;;;;;;;9.18;5.20;;;16.00;99.90;;;;;;5060029;28;20049;-59
2023/07/22 11:27:23;;;;;;;10.90;6.00;;;16.10;99.90;;;;;;5059887;28;20045;-59
2023/07/22 11:29:49;;;;;;;9.60;5.93;;;16.10;99.90;;;;;;5060342;28;20496;-59
2023/07/22 11:32:23;;;;;;;9.30;5.63;;;16.00;99.90;;;;;;5059258;28;20045;-58
2023/07/22 11:34:52;;;;;;;10.82;6.47;;;16.10;99.90;;;;;;5060464;28;20061;-58
2023/07/22 11:37:18;;;;;;;10.02;6.13;;;16.10;99.90;;;;;;5058901;28;20535;-61
2023/07/22 11:39:44;;;;;;;10.43;6.20;;;16.10;99.90;;;;;;5060209;28;20045;-59
2023/07/22 11:42:11;;;;;;;10.13;6.63;;;16.20;99.90;;;;;;5059735;28;20040;-58
2023/07/22 11:44:37;;;;;;;9.75;6.20;;;16.20;99.90;;;;;;5059491;28;20097;-59
2023/07/22 11:47:10;;;;;;;8.80;5.47;;;16.20;99.90;;;;;;5060061;28;20098;-58
2023/07/22 11:49:40;;;;;;;9.10;6.03;;;16.20;99.90;;;;;;5059017;28;20104;-59
2023/07/22 11:52:10;;;;;;;10.73;6.25;;;16.10;99.90;;;;;;5060402;28;20105;-61
2023/07/22 11:54:39;;;;;;;10.55;6.65;;;16.30;99.90;;;;;;5076886;28;20041;-60
2023/07/22 11:57:18;;;;;;;10.27;6.65;;;16.50;99.90;;;;;;5079916;28;20045;-59
2023/07/22 11:59:45;;;;;;;9.90;6.32;;;16.60;99.90;;;;;;5079812;28;20044;-59
2023/07/22 12:02:16;;;;;;;10.57;6.78;;;16.70;99.90;;;;;;5079037;28;20069;-59
2023/07/22 12:04:43;;;;;;;12.43;6.93;;;16.70;99.90;;;;;;5080000;28;20040;-60
2023/07/22 12:07:26;;;;;;;11.38;7.28;;;16.80;99.90;;;;;;5078283;28;20471;-59
2023/07/22 12:09:53;;;;;;;10.32;6.80;;;16.80;99.90;;;;;;5079598;28;20041;-58
2023/07/22 12:12:19;;;;;;;11.93;7.63;;;16.60;99.90;;;;;;5079136;28;20052;-58
2023/07/22 12:14:44;;;;;;;11.02;7.03;;;16.50;99.90;;;;;;5078965;28;20419;-59
2023/07/22 12:17:10;;;;;;;11.90;7.97;;;16.30;99.90;;;;;;5079694;28;20080;-58
2023/07/22 12:19:36;;;;;;;10.75;7.13;;;16.50;99.90;;;;;;5076268;28;20496;-58
2023/07/22 12:22:02;;;;;;;11.85;7.45;;;16.10;99.90;;;;;;5079584;28;20037;-58
2023/07/22 12:24:28;;;;;;;11.15;7.80;;;16.10;99.90;;;;;;5078329;28;20370;-59
2023/07/22 12:26:54;;;;;;;12.95;7.55;;;16.10;99.90;;;;;;5079142;28;20072;-61
2023/07/22 12:29:21;;;;;;;11.60;7.63;;;16.10;99.90;;;;;;5078946;28;20096;-61
2023/07/22 12:31:47;;;;;;;12.13;8.05;;;16.10;99.90;;;;;;5078593;28;20048;-62
2023/07/22 12:34:13;;;;;;;12.88;8.00;;;16.10;99.90;;;;;;5079343;28;20078;-61
2023/07/22 12:36:39;;;;;;;11.73;8.38;;;16.10;99.90;;;;;;5077470;28;20135;-62
2023/07/22 12:39:05;;;;;;;12.05;8.55;;;16.00;99.90;;;;;;5079317;28;20044;-66
2023/07/22 12:41:31;;;;;;;14.10;9.32;;;16.00;99.90;;;;;;5059710;28;20041;-65